Portada
METAR-TAF:

METAR-TAF

Aeropuertos :

Aeropuerto Internacional Jacinto Lara

Barquisimeto, Venezuela

latitud: 10-04N, longitud: 069-19W, altitud: 613 m

Observación

El informe se hizo hace 10 minutos, a las 17:00 UTC
Viento 8 kt del este
Temperatura 27°C
Humedad 66%
Presión 1016 hPa
Visibilidad 10 km o más
Cielo nuboso a una altura de 1600 ft

METAR: SVBM 251700Z 09008KT 9999 BKN016 27/20 Q1016

Hora: 13:10 (17:10 UTC)

Pronóstico

El informe se hizo hace 7 horas y 10 minutos, a las 10:00 UTC
Pronóstico válido del 25 a las 12 UTC al 26 a las 12 UTC
Viento 10 kt del este
Visibilidad 10 km o más
Cielo nuboso a una altura de 2000 ft
Evolucionando progresivamente
del 25 a las 17 UTC al 25 a las 21 UTC
Viento 8 kt del este
Visibilidad 10 km o más
Nubes dispersas a una altura de 1600 ft
Nubes dispersas a una altura de 10000 ft

TAF: SVBM 251000Z 2512/2612 09010KT 9999 BKN020 TX32/2418Z TN20/2508Z BECMG 2517/2521 10008KT 9999 SCT016 SCT100

Observaciones y pronósticos meteorológicos de más de 4000 aeropuertos (mensajes METAR y TAF).

Los puntos amarillos y rojos representan las estaciones disponibles.

Ponga el ratón en el punto deseado para ver el nombre de la estación.

Haga clic para ver las observaciones y los pronósticos meteorológicos.

Para cambiar el mapa : haga clic en los botones verdes con una cruz de color negro para hacer un zoom, en el botón verde con un guión para alejar o en las flechas verdes para mapas adyacentes.


METAR-TAF: